N127WF KSYR-KDTW
Flight info
| Callsign | N127WF |
|---|---|
| Flight time | 3h 12m |
| Altitude | 8000 |
| Route | SYR DINES DONEO TPGUN2 |
| Aircraft | C172/L-SFG/C |
Departure
| Time | 2026-04-17 03:05 |
|---|---|
| Airport | Syracuse Hancock International Airport (KSYR) |
Arrival
| Time | 2026-04-17 06:17 |
|---|---|
| Airport | Detroit Metropolitan Wayne County Airport (KDTW) |
| Time | Latitude | Longitude | Altitude | Speed | Heading |
|---|---|---|---|---|---|
| 2026-04-17 02:53 | 43.10638 | -76.11727 | 421 ft | 0 kts | 235° |
| 2026-04-17 03:00 | 43.10638 | -76.11728 | 421 ft | 0 kts | 246° |
| 2026-04-17 03:01 | 43.10673 | -76.11767 | 420 ft | 13 kts | 341° |
| 2026-04-17 03:01 | 43.10713 | -76.11784 | 420 ft | 0 kts | 349° |
| 2026-04-17 03:01 | 43.10715 | -76.11783 | 420 ft | 0 kts | 55° |
| 2026-04-17 03:01 | 43.10725 | -76.11603 | 418 ft | 34 kts | 88° |
| 2026-04-17 03:02 | 43.10679 | -76.11286 | 414 ft | 24 kts | 155° |
| 2026-04-17 03:02 | 43.10630 | -76.11141 | 413 ft | 17 kts | 88° |
| 2026-04-17 03:02 | 43.10638 | -76.10944 | 410 ft | 23 kts | 88° |
| 2026-04-17 03:02 | 43.10643 | -76.10712 | 408 ft | 26 kts | 85° |
| 2026-04-17 03:03 | 43.10690 | -76.10546 | 405 ft | 17 kts | 4° |
| 2026-04-17 03:03 | 43.10809 | -76.10556 | 407 ft | 5 kts | 356° |
| 2026-04-17 03:03 | 43.10811 | -76.10556 | 407 ft | 0 kts | 356° |
| 2026-04-17 03:03 | 43.10831 | -76.10558 | 407 ft | 12 kts | 352° |
| 2026-04-17 03:04 | 43.10885 | -76.10706 | 409 ft | 34 kts | 266° |
| 2026-04-17 03:04 | 43.10865 | -76.11295 | 415 ft | 83 kts | 268° |
| 2026-04-17 03:04 | 43.10867 | -76.12152 | 576 ft | 92 kts | 272° |
| 2026-04-17 03:04 | 43.10912 | -76.13028 | 815 ft | 92 kts | 276° |
| 2026-04-17 03:05 | 43.10996 | -76.13934 | 1003 ft | 93 kts | 281° |
| 2026-04-17 03:05 | 43.11132 | -76.14618 | 1343 ft | 78 kts | 286° |
| 2026-04-17 03:05 | 43.11330 | -76.15292 | 1620 ft | 72 kts | 298° |
| 2026-04-17 03:05 | 43.11646 | -76.15861 | 1784 ft | 83 kts | 311° |
| 2026-04-17 03:06 | 43.12111 | -76.16547 | 1739 ft | 108 kts | 309° |
| 2026-04-17 03:06 | 43.12611 | -76.17352 | 1827 ft | 111 kts | 308° |
| 2026-04-17 03:06 | 43.13111 | -76.18163 | 1952 ft | 111 kts | 308° |
| 2026-04-17 03:06 | 43.13607 | -76.18970 | 2077 ft | 111 kts | 308° |
| 2026-04-17 03:07 | 43.14101 | -76.19772 | 2201 ft | 110 kts | 308° |
| 2026-04-17 03:07 | 43.14599 | -76.20582 | 2327 ft | 110 kts | 309° |
| 2026-04-17 03:07 | 43.15089 | -76.21379 | 2452 ft | 109 kts | 309° |
| 2026-04-17 03:07 | 43.15521 | -76.22221 | 2572 ft | 108 kts | 290° |
| 2026-04-17 03:08 | 43.15690 | -76.23225 | 2699 ft | 108 kts | 282° |
| 2026-04-17 03:08 | 43.15823 | -76.24231 | 2824 ft | 107 kts | 281° |
| 2026-04-17 03:08 | 43.15953 | -76.25239 | 2949 ft | 107 kts | 281° |
| 2026-04-17 03:08 | 43.16081 | -76.26231 | 3072 ft | 106 kts | 281° |
| 2026-04-17 03:09 | 43.16211 | -76.27232 | 3197 ft | 106 kts | 282° |
| 2026-04-17 03:09 | 43.16337 | -76.28204 | 3383 ft | 100 kts | 283° |
| 2026-04-17 03:09 | 43.16589 | -76.29067 | 3578 ft | 96 kts | 294° |
| 2026-04-17 03:09 | 43.16826 | -76.29902 | 3775 ft | 92 kts | 288° |
| 2026-04-17 03:10 | 43.17003 | -76.30736 | 3974 ft | 89 kts | 288° |
| 2026-04-17 03:10 | 43.17171 | -76.31541 | 4171 ft | 87 kts | 288° |
| 2026-04-17 03:10 | 43.17335 | -76.32324 | 4368 ft | 85 kts | 288° |
| 2026-04-17 03:10 | 43.17494 | -76.33088 | 4566 ft | 82 kts | 288° |
| 2026-04-17 03:11 | 43.17650 | -76.33835 | 4764 ft | 80 kts | 288° |
| 2026-04-17 03:11 | 43.17800 | -76.34557 | 4962 ft | 78 kts | 288° |
| 2026-04-17 03:11 | 43.17945 | -76.35254 | 5158 ft | 75 kts | 288° |
| 2026-04-17 03:11 | 43.18086 | -76.35930 | 5355 ft | 73 kts | 287° |
| 2026-04-17 03:12 | 43.18222 | -76.36585 | 5552 ft | 70 kts | 287° |
| 2026-04-17 03:12 | 43.18351 | -76.37209 | 5747 ft | 66 kts | 287° |
| 2026-04-17 03:12 | 43.18473 | -76.37802 | 5942 ft | 62 kts | 287° |
| 2026-04-17 03:12 | 43.18586 | -76.38346 | 6132 ft | 58 kts | 287° |
| 2026-04-17 03:13 | 43.18692 | -76.38851 | 6323 ft | 52 kts | 286° |
| 2026-04-17 03:13 | 43.18786 | -76.39296 | 6510 ft | 44 kts | 287° |
| 2026-04-17 03:13 | 43.18877 | -76.39692 | 6579 ft | 54 kts | 289° |
| 2026-04-17 03:13 | 43.19044 | -76.40180 | 6693 ft | 59 kts | 290° |
| 2026-04-17 03:14 | 43.19217 | -76.40822 | 6656 ft | 82 kts | 290° |
| 2026-04-17 03:14 | 43.19434 | -76.41534 | 6821 ft | 79 kts | 291° |
| 2026-04-17 03:14 | 43.19704 | -76.42309 | 6846 ft | 81 kts | 296° |
| 2026-04-17 03:14 | 43.19994 | -76.42945 | 6880 ft | 77 kts | 298° |
| 2026-04-17 03:15 | 43.20284 | -76.43589 | 6862 ft | 76 kts | 289° |
| 2026-04-17 03:15 | 43.20435 | -76.44242 | 6926 ft | 68 kts | 285° |
| 2026-04-17 03:15 | 43.20560 | -76.44828 | 6988 ft | 60 kts | 285° |
| 2026-04-17 03:15 | 43.20673 | -76.45353 | 7054 ft | 56 kts | 284° |
| 2026-04-17 03:16 | 43.20789 | -76.45908 | 7139 ft | 64 kts | 284° |
| 2026-04-17 03:16 | 43.20919 | -76.46533 | 7222 ft | 72 kts | 284° |
| 2026-04-17 03:16 | 43.21064 | -76.47222 | 7301 ft | 79 kts | 284° |
| 2026-04-17 03:16 | 43.21222 | -76.47973 | 7379 ft | 84 kts | 284° |
| 2026-04-17 03:17 | 43.21389 | -76.48762 | 7455 ft | 87 kts | 284° |
| 2026-04-17 03:17 | 43.21561 | -76.49572 | 7529 ft | 89 kts | 284° |
| 2026-04-17 03:17 | 43.21738 | -76.50401 | 7602 ft | 91 kts | 284° |
| 2026-04-17 03:17 | 43.21915 | -76.51234 | 7674 ft | 92 kts | 284° |
| 2026-04-17 03:18 | 43.22098 | -76.52090 | 7747 ft | 92 kts | 284° |
| 2026-04-17 03:18 | 43.22279 | -76.52937 | 7819 ft | 93 kts | 283° |
| 2026-04-17 03:18 | 43.22460 | -76.53783 | 7890 ft | 93 kts | 283° |
| 2026-04-17 03:18 | 43.22641 | -76.54630 | 7961 ft | 92 kts | 283° |
| 2026-04-17 03:19 | 43.22825 | -76.55493 | 7978 ft | 97 kts | 283° |
| 2026-04-17 03:19 | 43.23018 | -76.56399 | 7975 ft | 101 kts | 283° |
| 2026-04-17 03:19 | 43.23220 | -76.57341 | 7974 ft | 103 kts | 283° |
| 2026-04-17 03:19 | 43.23421 | -76.58283 | 7974 ft | 104 kts | 283° |
| 2026-04-17 03:20 | 43.23626 | -76.59236 | 7974 ft | 104 kts | 283° |
| 2026-04-17 03:20 | 43.23831 | -76.60189 | 7974 ft | 105 kts | 283° |
| 2026-04-17 03:20 | 43.24039 | -76.61156 | 7974 ft | 105 kts | 284° |
| 2026-04-17 03:20 | 43.24243 | -76.62106 | 7974 ft | 105 kts | 283° |
| 2026-04-17 03:21 | 43.24449 | -76.63068 | 7975 ft | 105 kts | 284° |
| 2026-04-17 03:21 | 43.24656 | -76.64027 | 7975 ft | 105 kts | 284° |
| 2026-04-17 03:21 | 43.24864 | -76.64994 | 7975 ft | 105 kts | 284° |
| 2026-04-17 03:21 | 43.25071 | -76.65958 | 7980 ft | 105 kts | 283° |
| 2026-04-17 03:22 | 43.25279 | -76.66920 | 7980 ft | 105 kts | 283° |
| 2026-04-17 03:22 | 43.25486 | -76.67880 | 7981 ft | 105 kts | 283° |
| 2026-04-17 03:22 | 43.25694 | -76.68846 | 7981 ft | 106 kts | 283° |
| 2026-04-17 03:22 | 43.25875 | -76.69830 | 7978 ft | 105 kts | 271° |
| 2026-04-17 03:23 | 43.25760 | -76.70808 | 7982 ft | 105 kts | 259° |
| 2026-04-17 03:23 | 43.25591 | -76.71789 | 7982 ft | 105 kts | 258° |
| 2026-04-17 03:23 | 43.25426 | -76.72770 | 7982 ft | 105 kts | 261° |
| 2026-04-17 03:23 | 43.25368 | -76.73763 | 7982 ft | 105 kts | 270° |
| 2026-04-17 03:24 | 43.25413 | -76.74761 | 7983 ft | 105 kts | 275° |
| 2026-04-17 03:24 | 43.25518 | -76.75767 | 7983 ft | 105 kts | 277° |
| 2026-04-17 03:24 | 43.25654 | -76.76754 | 7984 ft | 105 kts | 279° |
| 2026-04-17 03:24 | 43.25800 | -76.77733 | 7984 ft | 105 kts | 279° |
| 2026-04-17 03:25 | 43.25951 | -76.78720 | 7984 ft | 105 kts | 279° |
| 2026-04-17 03:25 | 43.26102 | -76.79694 | 7985 ft | 105 kts | 279° |
| 2026-04-17 03:25 | 43.26260 | -76.80690 | 7985 ft | 105 kts | 279° |
| 2026-04-17 03:25 | 43.26415 | -76.81664 | 7985 ft | 105 kts | 280° |
| 2026-04-17 03:26 | 43.26573 | -76.82646 | 7985 ft | 105 kts | 280° |
| 2026-04-17 03:26 | 43.26730 | -76.83619 | 7985 ft | 105 kts | 280° |
| 2026-04-17 03:26 | 43.26888 | -76.84596 | 7985 ft | 104 kts | 280° |
| 2026-04-17 03:26 | 43.27046 | -76.85576 | 7985 ft | 104 kts | 280° |
| 2026-04-17 03:27 | 43.27203 | -76.86544 | 7985 ft | 104 kts | 280° |
| 2026-04-17 03:27 | 43.27362 | -76.87517 | 7985 ft | 104 kts | 280° |
| 2026-04-17 03:27 | 43.27519 | -76.88486 | 7985 ft | 103 kts | 280° |
| 2026-04-17 03:27 | 43.27677 | -76.89453 | 7985 ft | 103 kts | 280° |
| 2026-04-17 03:28 | 43.27834 | -76.90417 | 7985 ft | 103 kts | 280° |
| 2026-04-17 03:28 | 43.27988 | -76.91366 | 7985 ft | 103 kts | 280° |
| 2026-04-17 03:28 | 43.28146 | -76.92336 | 7985 ft | 102 kts | 280° |
| 2026-04-17 03:28 | 43.28301 | -76.93291 | 7984 ft | 102 kts | 280° |
| 2026-04-17 03:29 | 43.28454 | -76.94233 | 7984 ft | 102 kts | 280° |
| 2026-04-17 03:29 | 43.28609 | -76.95185 | 7984 ft | 102 kts | 280° |
| 2026-04-17 03:29 | 43.28765 | -76.96145 | 7984 ft | 101 kts | 280° |
| 2026-04-17 03:29 | 43.28918 | -76.97089 | 7984 ft | 101 kts | 280° |
| 2026-04-17 03:30 | 43.29071 | -76.98035 | 7984 ft | 101 kts | 280° |
| 2026-04-17 03:30 | 43.29224 | -76.98975 | 7984 ft | 101 kts | 280° |
| 2026-04-17 03:30 | 43.29376 | -76.99913 | 7984 ft | 100 kts | 280° |
| 2026-04-17 03:30 | 43.29528 | -77.00850 | 7984 ft | 100 kts | 280° |
| 2026-04-17 03:31 | 43.29680 | -77.01787 | 7984 ft | 100 kts | 280° |
| 2026-04-17 03:31 | 43.29831 | -77.02719 | 7984 ft | 100 kts | 280° |
| 2026-04-17 03:31 | 43.29980 | -77.03648 | 7984 ft | 99 kts | 280° |
| 2026-04-17 03:31 | 43.30130 | -77.04571 | 7984 ft | 99 kts | 280° |
| 2026-04-17 03:32 | 43.30280 | -77.05502 | 7984 ft | 99 kts | 280° |
| 2026-04-17 03:32 | 43.30430 | -77.06425 | 7984 ft | 99 kts | 280° |
| 2026-04-17 03:32 | 43.30578 | -77.07346 | 7984 ft | 99 kts | 280° |
| 2026-04-17 03:32 | 43.30728 | -77.08278 | 7984 ft | 99 kts | 280° |
| 2026-04-17 03:33 | 43.30878 | -77.09209 | 7984 ft | 99 kts | 280° |
| 2026-04-17 03:33 | 43.31025 | -77.10123 | 7984 ft | 99 kts | 280° |
| 2026-04-17 03:33 | 43.31175 | -77.11050 | 7984 ft | 99 kts | 280° |
| 2026-04-17 03:33 | 43.31342 | -77.11969 | 7983 ft | 99 kts | 284° |
| 2026-04-17 03:34 | 43.31504 | -77.12894 | 7984 ft | 99 kts | 278° |
| 2026-04-17 03:34 | 43.31589 | -77.13821 | 7983 ft | 99 kts | 274° |
| 2026-04-17 03:34 | 43.31601 | -77.14778 | 7981 ft | 99 kts | 264° |
| 2026-04-17 03:34 | 43.31248 | -77.15604 | 7984 ft | 104 kts | 239° |
| 2026-04-17 03:35 | 43.30806 | -77.16399 | 7983 ft | 103 kts | 243° |
| 2026-04-17 03:35 | 43.30420 | -77.17228 | 7983 ft | 102 kts | 247° |
| 2026-04-17 03:35 | 43.30130 | -77.18106 | 7981 ft | 99 kts | 262° |
| 2026-04-17 03:35 | 43.30002 | -77.19035 | 7983 ft | 99 kts | 262° |
| 2026-04-17 03:36 | 43.29714 | -77.20899 | 7983 ft | 99 kts | 261° |
| 2026-04-17 03:36 | 43.29560 | -77.21824 | 7983 ft | 99 kts | 261° |
| 2026-04-17 03:36 | 43.29401 | -77.22748 | 7983 ft | 99 kts | 260° |
| 2026-04-17 03:37 | 43.29237 | -77.23674 | 7983 ft | 99 kts | 260° |
| 2026-04-17 03:37 | 43.29071 | -77.24594 | 7983 ft | 99 kts | 260° |
| 2026-04-17 03:37 | 43.28902 | -77.25520 | 7983 ft | 100 kts | 259° |
| 2026-04-17 03:37 | 43.28731 | -77.26442 | 7983 ft | 100 kts | 259° |
| 2026-04-17 03:38 | 43.28559 | -77.27372 | 7983 ft | 100 kts | 259° |
| 2026-04-17 03:38 | 43.28387 | -77.28291 | 7983 ft | 99 kts | 259° |
| 2026-04-17 03:38 | 43.28215 | -77.29208 | 7983 ft | 99 kts | 259° |
| 2026-04-17 03:38 | 43.28041 | -77.30134 | 7983 ft | 99 kts | 259° |
| 2026-04-17 03:39 | 43.27868 | -77.31046 | 7983 ft | 99 kts | 258° |
| 2026-04-17 03:39 | 43.27694 | -77.31969 | 7984 ft | 99 kts | 258° |
| 2026-04-17 03:39 | 43.27521 | -77.32876 | 7984 ft | 99 kts | 258° |
| 2026-04-17 03:39 | 43.27348 | -77.33786 | 7984 ft | 99 kts | 257° |
| 2026-04-17 03:40 | 43.27173 | -77.34709 | 7984 ft | 98 kts | 257° |
| 2026-04-17 03:40 | 43.26999 | -77.35619 | 7985 ft | 98 kts | 257° |
| 2026-04-17 03:40 | 43.26826 | -77.36524 | 7985 ft | 98 kts | 256° |
| 2026-04-17 03:40 | 43.26654 | -77.37427 | 7985 ft | 98 kts | 256° |
| 2026-04-17 03:41 | 43.26481 | -77.38334 | 7985 ft | 98 kts | 256° |
| 2026-04-17 03:41 | 43.26307 | -77.39237 | 7986 ft | 98 kts | 255° |
| 2026-04-17 03:41 | 43.26134 | -77.40143 | 7986 ft | 98 kts | 255° |
| 2026-04-17 03:41 | 43.25962 | -77.41039 | 7986 ft | 98 kts | 255° |
| 2026-04-17 03:42 | 43.25789 | -77.41944 | 7986 ft | 97 kts | 255° |
| 2026-04-17 03:42 | 43.25615 | -77.42849 | 7987 ft | 97 kts | 254° |
| 2026-04-17 03:42 | 43.25442 | -77.43752 | 7987 ft | 97 kts | 254° |
| 2026-04-17 03:42 | 43.25270 | -77.44647 | 7987 ft | 97 kts | 253° |
| 2026-04-17 03:43 | 43.25096 | -77.45554 | 7988 ft | 97 kts | 253° |
| 2026-04-17 03:43 | 43.24924 | -77.46452 | 7988 ft | 97 kts | 253° |
| 2026-04-17 03:43 | 43.24751 | -77.47350 | 7988 ft | 97 kts | 252° |
| 2026-04-17 03:43 | 43.24577 | -77.48256 | 7988 ft | 97 kts | 252° |
| 2026-04-17 03:44 | 43.24403 | -77.49155 | 7989 ft | 98 kts | 252° |
| 2026-04-17 03:44 | 43.24230 | -77.50056 | 7989 ft | 98 kts | 251° |
| 2026-04-17 03:44 | 43.24057 | -77.50956 | 7989 ft | 98 kts | 251° |
| 2026-04-17 03:44 | 43.23883 | -77.51858 | 7989 ft | 98 kts | 251° |
| 2026-04-17 03:45 | 43.23708 | -77.52764 | 7990 ft | 98 kts | 251° |
| 2026-04-17 03:45 | 43.23533 | -77.53667 | 7990 ft | 98 kts | 251° |
| 2026-04-17 03:45 | 43.23357 | -77.54579 | 7990 ft | 98 kts | 251° |
| 2026-04-17 03:45 | 43.23182 | -77.55486 | 7990 ft | 98 kts | 251° |
| 2026-04-17 03:46 | 43.23007 | -77.56389 | 7989 ft | 98 kts | 251° |
| 2026-04-17 03:46 | 43.22833 | -77.57288 | 7989 ft | 98 kts | 251° |
| 2026-04-17 03:46 | 43.22656 | -77.58203 | 7989 ft | 98 kts | 251° |
| 2026-04-17 03:46 | 43.22482 | -77.59106 | 7989 ft | 98 kts | 251° |
| 2026-04-17 03:47 | 43.22308 | -77.60004 | 7989 ft | 98 kts | 251° |
| 2026-04-17 03:47 | 43.22132 | -77.60916 | 7989 ft | 98 kts | 251° |
| 2026-04-17 03:47 | 43.21957 | -77.61815 | 7989 ft | 98 kts | 251° |
| 2026-04-17 03:47 | 43.21782 | -77.62721 | 7989 ft | 98 kts | 251° |
| 2026-04-17 03:48 | 43.21607 | -77.63623 | 7989 ft | 98 kts | 251° |
| 2026-04-17 03:48 | 43.21430 | -77.64532 | 7989 ft | 98 kts | 251° |
| 2026-04-17 03:48 | 43.21256 | -77.65432 | 7992 ft | 98 kts | 251° |
| 2026-04-17 03:48 | 43.21079 | -77.66339 | 7994 ft | 98 kts | 251° |
| 2026-04-17 03:49 | 43.20904 | -77.67242 | 7994 ft | 98 kts | 251° |
| 2026-04-17 03:49 | 43.20728 | -77.68150 | 7994 ft | 98 kts | 251° |
| 2026-04-17 03:49 | 43.20551 | -77.69060 | 7994 ft | 98 kts | 251° |
| 2026-04-17 03:49 | 43.20375 | -77.69966 | 7994 ft | 98 kts | 251° |
| 2026-04-17 03:50 | 43.20200 | -77.70868 | 7993 ft | 98 kts | 251° |
| 2026-04-17 03:50 | 43.20024 | -77.71774 | 7993 ft | 98 kts | 251° |
| 2026-04-17 03:50 | 43.19847 | -77.72681 | 7993 ft | 98 kts | 251° |
| 2026-04-17 03:50 | 43.19669 | -77.73595 | 7993 ft | 98 kts | 251° |
| 2026-04-17 03:51 | 43.19493 | -77.74500 | 7993 ft | 98 kts | 251° |
| 2026-04-17 03:51 | 43.19317 | -77.75403 | 7993 ft | 98 kts | 251° |
| 2026-04-17 03:51 | 43.19141 | -77.76305 | 7993 ft | 98 kts | 251° |
| 2026-04-17 03:51 | 43.18963 | -77.77213 | 7993 ft | 98 kts | 251° |
| 2026-04-17 03:52 | 43.18787 | -77.78119 | 7993 ft | 98 kts | 251° |
| 2026-04-17 03:52 | 43.18610 | -77.79024 | 7993 ft | 98 kts | 251° |
| 2026-04-17 03:52 | 43.18433 | -77.79928 | 7993 ft | 98 kts | 251° |
| 2026-04-17 03:52 | 43.18256 | -77.80832 | 7993 ft | 98 kts | 251° |
| 2026-04-17 03:53 | 43.18079 | -77.81737 | 7993 ft | 98 kts | 251° |
| 2026-04-17 03:53 | 43.17902 | -77.82641 | 7993 ft | 98 kts | 251° |
| 2026-04-17 03:53 | 43.17725 | -77.83545 | 7993 ft | 98 kts | 251° |
| 2026-04-17 03:53 | 43.17548 | -77.84450 | 7993 ft | 98 kts | 251° |
| 2026-04-17 03:54 | 43.17370 | -77.85362 | 7993 ft | 98 kts | 251° |
| 2026-04-17 03:54 | 43.17193 | -77.86259 | 7993 ft | 98 kts | 251° |
| 2026-04-17 03:54 | 43.17016 | -77.87163 | 7993 ft | 98 kts | 251° |
| 2026-04-17 03:54 | 43.16838 | -77.88071 | 7992 ft | 98 kts | 251° |
| 2026-04-17 03:55 | 43.16663 | -77.88964 | 7992 ft | 98 kts | 251° |
| 2026-04-17 03:55 | 43.16484 | -77.89873 | 7992 ft | 98 kts | 251° |
| 2026-04-17 03:55 | 43.16309 | -77.90767 | 7992 ft | 98 kts | 251° |
| 2026-04-17 03:55 | 43.16131 | -77.91669 | 7992 ft | 98 kts | 251° |
| 2026-04-17 03:56 | 43.15955 | -77.92564 | 7992 ft | 98 kts | 251° |
| 2026-04-17 03:56 | 43.15776 | -77.93474 | 7992 ft | 98 kts | 251° |
| 2026-04-17 03:56 | 43.15600 | -77.94370 | 7992 ft | 98 kts | 251° |
| 2026-04-17 03:56 | 43.15423 | -77.95266 | 7992 ft | 97 kts | 251° |
| 2026-04-17 03:57 | 43.15247 | -77.96162 | 7992 ft | 97 kts | 251° |
| 2026-04-17 03:57 | 43.15070 | -77.97060 | 7992 ft | 97 kts | 251° |
| 2026-04-17 03:57 | 43.14893 | -77.97955 | 7992 ft | 97 kts | 251° |
| 2026-04-17 03:57 | 43.14716 | -77.98852 | 7992 ft | 97 kts | 251° |
| 2026-04-17 03:58 | 43.14537 | -77.99758 | 7992 ft | 97 kts | 251° |
| 2026-04-17 03:58 | 43.14360 | -78.00653 | 7992 ft | 97 kts | 251° |
| 2026-04-17 03:58 | 43.14184 | -78.01547 | 7992 ft | 97 kts | 251° |
| 2026-04-17 03:58 | 43.14006 | -78.02444 | 7992 ft | 97 kts | 251° |
| 2026-04-17 03:59 | 43.13829 | -78.03342 | 7992 ft | 97 kts | 251° |
| 2026-04-17 03:59 | 43.13652 | -78.04237 | 7992 ft | 97 kts | 251° |
| 2026-04-17 03:59 | 43.13476 | -78.05124 | 7991 ft | 97 kts | 251° |
| 2026-04-17 03:59 | 43.13299 | -78.06020 | 7991 ft | 97 kts | 251° |
| 2026-04-17 04:00 | 43.13121 | -78.06917 | 7991 ft | 97 kts | 251° |
| 2026-04-17 04:00 | 43.12943 | -78.07816 | 7991 ft | 97 kts | 251° |
| 2026-04-17 04:00 | 43.12764 | -78.08716 | 7991 ft | 97 kts | 251° |
| 2026-04-17 04:00 | 43.12587 | -78.09609 | 7991 ft | 97 kts | 251° |
| 2026-04-17 04:01 | 43.12410 | -78.10503 | 7991 ft | 97 kts | 251° |
| 2026-04-17 04:01 | 43.12232 | -78.11398 | 7991 ft | 97 kts | 251° |
| 2026-04-17 04:01 | 43.12054 | -78.12292 | 7991 ft | 97 kts | 251° |
| 2026-04-17 04:01 | 43.11877 | -78.13182 | 7991 ft | 97 kts | 251° |
| 2026-04-17 04:02 | 43.11700 | -78.14072 | 7991 ft | 97 kts | 251° |
| 2026-04-17 04:02 | 43.11521 | -78.14973 | 7991 ft | 97 kts | 251° |
| 2026-04-17 04:02 | 43.11343 | -78.15867 | 7991 ft | 97 kts | 251° |
| 2026-04-17 04:02 | 43.11167 | -78.16753 | 7991 ft | 97 kts | 251° |
| 2026-04-17 04:03 | 43.10989 | -78.17648 | 7991 ft | 97 kts | 251° |
| 2026-04-17 04:03 | 43.10810 | -78.18545 | 7991 ft | 97 kts | 251° |
| 2026-04-17 04:03 | 43.10632 | -78.19437 | 7991 ft | 97 kts | 251° |
| 2026-04-17 04:03 | 43.10453 | -78.20332 | 7991 ft | 97 kts | 251° |
| 2026-04-17 04:04 | 43.10276 | -78.21220 | 7991 ft | 97 kts | 251° |
| 2026-04-17 04:04 | 43.10098 | -78.22115 | 7991 ft | 97 kts | 251° |
| 2026-04-17 04:04 | 43.09920 | -78.23008 | 7990 ft | 97 kts | 251° |
| 2026-04-17 04:04 | 43.09743 | -78.23891 | 7990 ft | 97 kts | 251° |
| 2026-04-17 04:05 | 43.09563 | -78.24792 | 7990 ft | 97 kts | 251° |
| 2026-04-17 04:05 | 43.09386 | -78.25677 | 7990 ft | 97 kts | 251° |
| 2026-04-17 04:05 | 43.09207 | -78.26574 | 7990 ft | 97 kts | 251° |
| 2026-04-17 04:05 | 43.09028 | -78.27469 | 7990 ft | 97 kts | 251° |
| 2026-04-17 04:06 | 43.08849 | -78.28362 | 7990 ft | 97 kts | 251° |
| 2026-04-17 04:06 | 43.08670 | -78.29253 | 7990 ft | 97 kts | 251° |
| 2026-04-17 04:06 | 43.08493 | -78.30137 | 7990 ft | 97 kts | 250° |
| 2026-04-17 04:06 | 43.08314 | -78.31033 | 7990 ft | 97 kts | 250° |
| 2026-04-17 04:07 | 43.08135 | -78.31924 | 7990 ft | 97 kts | 250° |
| 2026-04-17 04:07 | 43.07954 | -78.32828 | 7990 ft | 97 kts | 250° |
| 2026-04-17 04:07 | 43.07776 | -78.33713 | 7990 ft | 97 kts | 250° |
| 2026-04-17 04:07 | 43.07595 | -78.34614 | 7990 ft | 97 kts | 250° |
| 2026-04-17 04:08 | 43.07416 | -78.35501 | 7990 ft | 97 kts | 250° |
| 2026-04-17 04:08 | 43.07234 | -78.36407 | 7990 ft | 97 kts | 250° |
| 2026-04-17 04:08 | 43.07056 | -78.37295 | 7990 ft | 97 kts | 250° |
| 2026-04-17 04:08 | 43.06874 | -78.38197 | 7989 ft | 98 kts | 250° |
| 2026-04-17 04:09 | 43.06695 | -78.39086 | 7989 ft | 98 kts | 250° |
| 2026-04-17 04:09 | 43.06513 | -78.39990 | 7989 ft | 98 kts | 250° |
| 2026-04-17 04:09 | 43.06332 | -78.40889 | 7989 ft | 98 kts | 250° |
| 2026-04-17 04:09 | 43.06152 | -78.41782 | 7989 ft | 98 kts | 249° |
| 2026-04-17 04:10 | 43.05971 | -78.42674 | 7989 ft | 98 kts | 249° |
| 2026-04-17 04:10 | 43.05788 | -78.43584 | 7989 ft | 98 kts | 249° |
| 2026-04-17 04:10 | 43.05608 | -78.44476 | 7989 ft | 98 kts | 249° |
| 2026-04-17 04:10 | 43.05426 | -78.45377 | 7989 ft | 98 kts | 249° |
| 2026-04-17 04:11 | 43.05242 | -78.46287 | 7989 ft | 98 kts | 249° |
| 2026-04-17 04:11 | 43.05059 | -78.47191 | 7989 ft | 98 kts | 249° |
| 2026-04-17 04:11 | 43.04877 | -78.48093 | 7989 ft | 98 kts | 249° |
| 2026-04-17 04:11 | 43.04694 | -78.48994 | 7989 ft | 98 kts | 249° |
| 2026-04-17 04:12 | 43.04512 | -78.49895 | 7989 ft | 98 kts | 249° |
| 2026-04-17 04:12 | 43.04328 | -78.50802 | 7989 ft | 98 kts | 249° |
| 2026-04-17 04:12 | 43.04146 | -78.51701 | 7989 ft | 98 kts | 249° |
| 2026-04-17 04:12 | 43.03960 | -78.52616 | 7989 ft | 99 kts | 249° |
| 2026-04-17 04:13 | 43.03779 | -78.53511 | 7989 ft | 99 kts | 249° |
| 2026-04-17 04:13 | 43.03594 | -78.54421 | 7989 ft | 99 kts | 249° |
| 2026-04-17 04:13 | 43.03410 | -78.55327 | 7988 ft | 99 kts | 249° |
| 2026-04-17 04:13 | 43.03226 | -78.56235 | 7988 ft | 99 kts | 249° |
| 2026-04-17 04:14 | 43.03041 | -78.57145 | 7988 ft | 99 kts | 249° |
| 2026-04-17 04:14 | 43.02856 | -78.58054 | 7988 ft | 99 kts | 249° |
| 2026-04-17 04:14 | 43.02673 | -78.58953 | 7988 ft | 99 kts | 249° |
| 2026-04-17 04:14 | 43.02486 | -78.59871 | 7988 ft | 99 kts | 249° |
| 2026-04-17 04:15 | 43.02301 | -78.60780 | 7988 ft | 99 kts | 249° |
| 2026-04-17 04:15 | 43.02115 | -78.61692 | 7988 ft | 99 kts | 249° |
| 2026-04-17 04:15 | 43.01930 | -78.62603 | 7988 ft | 100 kts | 249° |
| 2026-04-17 04:15 | 43.01743 | -78.63519 | 7988 ft | 100 kts | 249° |
| 2026-04-17 04:16 | 43.01557 | -78.64431 | 7988 ft | 100 kts | 249° |
| 2026-04-17 04:16 | 43.01369 | -78.65350 | 7991 ft | 100 kts | 248° |
| 2026-04-17 04:16 | 43.01180 | -78.66278 | 7992 ft | 100 kts | 248° |
| 2026-04-17 04:16 | 43.00994 | -78.67190 | 7992 ft | 101 kts | 248° |
| 2026-04-17 04:17 | 43.00805 | -78.68116 | 7992 ft | 101 kts | 248° |
| 2026-04-17 04:17 | 43.00614 | -78.69048 | 7992 ft | 101 kts | 248° |
| 2026-04-17 04:17 | 43.00425 | -78.69975 | 7992 ft | 102 kts | 248° |
| 2026-04-17 04:17 | 43.00234 | -78.70908 | 7992 ft | 102 kts | 248° |
| 2026-04-17 04:18 | 43.00042 | -78.71847 | 7992 ft | 102 kts | 248° |
| 2026-04-17 04:18 | 42.99851 | -78.72778 | 7992 ft | 102 kts | 248° |
| 2026-04-17 04:18 | 42.99660 | -78.73712 | 7992 ft | 102 kts | 248° |
| 2026-04-17 04:18 | 42.99469 | -78.74644 | 7992 ft | 102 kts | 249° |
| 2026-04-17 04:19 | 42.99275 | -78.75590 | 7992 ft | 102 kts | 249° |
| 2026-04-17 04:19 | 42.99085 | -78.76516 | 7992 ft | 102 kts | 249° |
| 2026-04-17 04:19 | 42.98890 | -78.77465 | 7992 ft | 102 kts | 249° |
| 2026-04-17 04:19 | 42.98697 | -78.78404 | 7992 ft | 102 kts | 249° |
| 2026-04-17 04:20 | 42.98507 | -78.79331 | 7992 ft | 102 kts | 249° |
| 2026-04-17 04:20 | 42.98313 | -78.80276 | 7992 ft | 103 kts | 249° |
| 2026-04-17 04:20 | 42.98119 | -78.81216 | 7992 ft | 103 kts | 249° |
| 2026-04-17 04:20 | 42.97926 | -78.82157 | 7992 ft | 103 kts | 249° |
| 2026-04-17 04:21 | 42.97731 | -78.83100 | 7992 ft | 103 kts | 249° |
| 2026-04-17 04:21 | 42.97538 | -78.84039 | 7992 ft | 103 kts | 249° |
| 2026-04-17 04:21 | 42.97343 | -78.84987 | 7991 ft | 103 kts | 249° |
| 2026-04-17 04:21 | 42.97147 | -78.85922 | 7991 ft | 103 kts | 248° |
| 2026-04-17 04:22 | 42.96954 | -78.86867 | 7991 ft | 103 kts | 249° |
| 2026-04-17 04:22 | 42.96758 | -78.87820 | 7991 ft | 103 kts | 249° |
| 2026-04-17 04:22 | 42.96565 | -78.88756 | 7991 ft | 103 kts | 249° |
| 2026-04-17 04:22 | 42.96370 | -78.89703 | 7991 ft | 103 kts | 249° |
| 2026-04-17 04:23 | 42.96174 | -78.90649 | 7991 ft | 103 kts | 249° |
| 2026-04-17 04:23 | 42.95978 | -78.91599 | 7991 ft | 104 kts | 250° |
| 2026-04-17 04:23 | 42.95782 | -78.92548 | 7991 ft | 104 kts | 250° |
| 2026-04-17 04:23 | 42.95586 | -78.93496 | 7991 ft | 104 kts | 250° |
| 2026-04-17 04:24 | 42.95389 | -78.94447 | 7991 ft | 104 kts | 250° |
| 2026-04-17 04:24 | 42.95192 | -78.95398 | 7991 ft | 104 kts | 250° |
| 2026-04-17 04:24 | 42.94995 | -78.96349 | 7991 ft | 104 kts | 250° |
| 2026-04-17 04:24 | 42.94797 | -78.97303 | 7991 ft | 104 kts | 250° |
| 2026-04-17 04:25 | 42.94598 | -78.98265 | 7991 ft | 104 kts | 250° |
| 2026-04-17 04:25 | 42.94401 | -78.99215 | 7991 ft | 104 kts | 250° |
| 2026-04-17 04:25 | 42.94202 | -79.00174 | 7991 ft | 105 kts | 250° |
| 2026-04-17 04:25 | 42.94002 | -79.01136 | 7991 ft | 105 kts | 250° |
| 2026-04-17 04:26 | 42.93805 | -79.02087 | 7991 ft | 105 kts | 250° |
| 2026-04-17 04:26 | 42.93605 | -79.03050 | 7991 ft | 105 kts | 250° |
| 2026-04-17 04:26 | 42.93403 | -79.04018 | 7991 ft | 105 kts | 250° |
| 2026-04-17 04:26 | 42.93203 | -79.04984 | 7991 ft | 106 kts | 250° |
| 2026-04-17 04:27 | 42.93001 | -79.05951 | 7991 ft | 106 kts | 250° |
| 2026-04-17 04:27 | 42.92798 | -79.06927 | 7991 ft | 106 kts | 250° |
| 2026-04-17 04:27 | 42.92598 | -79.07889 | 7991 ft | 106 kts | 250° |
| 2026-04-17 04:27 | 42.92395 | -79.08861 | 7991 ft | 106 kts | 250° |
| 2026-04-17 04:28 | 42.92192 | -79.09837 | 7991 ft | 107 kts | 250° |
| 2026-04-17 04:28 | 42.91989 | -79.10810 | 7991 ft | 107 kts | 250° |
| 2026-04-17 04:28 | 42.91785 | -79.11789 | 7991 ft | 107 kts | 250° |
| 2026-04-17 04:28 | 42.91581 | -79.12762 | 7991 ft | 107 kts | 250° |
| 2026-04-17 04:29 | 42.91376 | -79.13746 | 7991 ft | 107 kts | 250° |
| 2026-04-17 04:29 | 42.91171 | -79.14726 | 7991 ft | 107 kts | 250° |
| 2026-04-17 04:29 | 42.90966 | -79.15709 | 7991 ft | 107 kts | 250° |
| 2026-04-17 04:29 | 42.90761 | -79.16688 | 7991 ft | 108 kts | 250° |
| 2026-04-17 04:30 | 42.90554 | -79.17673 | 7991 ft | 108 kts | 250° |
| 2026-04-17 04:30 | 42.90349 | -79.18655 | 7991 ft | 108 kts | 250° |
| 2026-04-17 04:30 | 42.90144 | -79.19643 | 7991 ft | 108 kts | 250° |
| 2026-04-17 04:30 | 42.89936 | -79.20631 | 7992 ft | 108 kts | 250° |
| 2026-04-17 04:31 | 42.89728 | -79.21623 | 7995 ft | 108 kts | 250° |
| 2026-04-17 04:31 | 42.89521 | -79.22615 | 7995 ft | 109 kts | 250° |
| 2026-04-17 04:31 | 42.89312 | -79.23606 | 7995 ft | 109 kts | 250° |
| 2026-04-17 04:31 | 42.89103 | -79.24603 | 7997 ft | 109 kts | 250° |
| 2026-04-17 04:32 | 42.88893 | -79.25601 | 7997 ft | 109 kts | 250° |
| 2026-04-17 04:32 | 42.88685 | -79.26595 | 7998 ft | 109 kts | 250° |
| 2026-04-17 04:32 | 42.88474 | -79.27596 | 7999 ft | 110 kts | 250° |
| 2026-04-17 04:32 | 42.88263 | -79.28597 | 8000 ft | 110 kts | 250° |
| 2026-04-17 04:33 | 42.88054 | -79.29594 | 8001 ft | 110 kts | 250° |
| 2026-04-17 04:33 | 42.87842 | -79.30599 | 8001 ft | 110 kts | 250° |
| 2026-04-17 04:33 | 42.87630 | -79.31605 | 8002 ft | 110 kts | 250° |
| 2026-04-17 04:33 | 42.87419 | -79.32607 | 8003 ft | 110 kts | 250° |
| 2026-04-17 04:34 | 42.86995 | -79.34619 | 8005 ft | 110 kts | 250° |
| 2026-04-17 04:34 | 42.86780 | -79.35633 | 8006 ft | 110 kts | 249° |
| 2026-04-17 04:34 | 42.86569 | -79.36635 | 8006 ft | 110 kts | 249° |
| 2026-04-17 04:35 | 42.86356 | -79.37640 | 8007 ft | 110 kts | 249° |
| 2026-04-17 04:35 | 42.86140 | -79.38662 | 8008 ft | 111 kts | 249° |
| 2026-04-17 04:35 | 42.85927 | -79.39670 | 8009 ft | 111 kts | 249° |
| 2026-04-17 04:35 | 42.85714 | -79.40676 | 8009 ft | 111 kts | 249° |
| 2026-04-17 04:36 | 42.85501 | -79.41685 | 8010 ft | 111 kts | 249° |
| 2026-04-17 04:36 | 42.85286 | -79.42698 | 8011 ft | 111 kts | 249° |
| 2026-04-17 04:36 | 42.85071 | -79.43711 | 8011 ft | 111 kts | 249° |
| 2026-04-17 04:36 | 42.84858 | -79.44716 | 8012 ft | 111 kts | 249° |
| 2026-04-17 04:37 | 42.84642 | -79.45732 | 8011 ft | 111 kts | 249° |
| 2026-04-17 04:37 | 42.84428 | -79.46739 | 8011 ft | 111 kts | 249° |
| 2026-04-17 04:37 | 42.84211 | -79.47763 | 8011 ft | 111 kts | 249° |
| 2026-04-17 04:37 | 42.83996 | -79.48775 | 8010 ft | 111 kts | 249° |
| 2026-04-17 04:38 | 42.83781 | -79.49786 | 8010 ft | 111 kts | 249° |
| 2026-04-17 04:38 | 42.83566 | -79.50796 | 8010 ft | 111 kts | 249° |
| 2026-04-17 04:38 | 42.83353 | -79.51801 | 8010 ft | 111 kts | 250° |
| 2026-04-17 04:38 | 42.83138 | -79.52808 | 8009 ft | 111 kts | 250° |
| 2026-04-17 04:39 | 42.82923 | -79.53820 | 8009 ft | 111 kts | 250° |
| 2026-04-17 04:39 | 42.82707 | -79.54832 | 8009 ft | 111 kts | 250° |
| 2026-04-17 04:39 | 42.82494 | -79.55833 | 8008 ft | 111 kts | 250° |
| 2026-04-17 04:39 | 42.82279 | -79.56841 | 8008 ft | 111 kts | 250° |
| 2026-04-17 04:40 | 42.82062 | -79.57856 | 8008 ft | 111 kts | 250° |
| 2026-04-17 04:40 | 42.81848 | -79.58861 | 8008 ft | 110 kts | 250° |
| 2026-04-17 04:40 | 42.81632 | -79.59872 | 8008 ft | 110 kts | 250° |
| 2026-04-17 04:40 | 42.81416 | -79.60880 | 8007 ft | 110 kts | 250° |
| 2026-04-17 04:41 | 42.81202 | -79.61884 | 8007 ft | 110 kts | 250° |
| 2026-04-17 04:41 | 42.80987 | -79.62886 | 8007 ft | 110 kts | 250° |
| 2026-04-17 04:41 | 42.80772 | -79.63891 | 8007 ft | 110 kts | 250° |
| 2026-04-17 04:41 | 42.80557 | -79.64896 | 8007 ft | 110 kts | 250° |
| 2026-04-17 04:42 | 42.80343 | -79.65895 | 8009 ft | 110 kts | 249° |
| 2026-04-17 04:42 | 42.80127 | -79.66906 | 8009 ft | 111 kts | 249° |
| 2026-04-17 04:42 | 42.79912 | -79.67909 | 8009 ft | 111 kts | 250° |
| 2026-04-17 04:42 | 42.79696 | -79.68916 | 8009 ft | 111 kts | 250° |
| 2026-04-17 04:43 | 42.79480 | -79.69921 | 8009 ft | 111 kts | 250° |
| 2026-04-17 04:43 | 42.79262 | -79.70939 | 8009 ft | 111 kts | 250° |
| 2026-04-17 04:43 | 42.79045 | -79.71949 | 8009 ft | 111 kts | 250° |
| 2026-04-17 04:43 | 42.78825 | -79.72952 | 8008 ft | 111 kts | 250° |
| 2026-04-17 04:44 | 42.78617 | -79.73962 | 8008 ft | 111 kts | 251° |
| 2026-04-17 04:44 | 42.78426 | -79.74978 | 8008 ft | 111 kts | 252° |
| 2026-04-17 04:44 | 42.78246 | -79.76001 | 8008 ft | 111 kts | 252° |
| 2026-04-17 04:44 | 42.78076 | -79.77026 | 8008 ft | 111 kts | 253° |
| 2026-04-17 04:45 | 42.77911 | -79.78064 | 8007 ft | 111 kts | 253° |
| 2026-04-17 04:45 | 42.77753 | -79.79087 | 8007 ft | 111 kts | 254° |
| 2026-04-17 04:45 | 42.77598 | -79.80121 | 8007 ft | 111 kts | 254° |
| 2026-04-17 04:45 | 42.77445 | -79.81152 | 8007 ft | 111 kts | 254° |
| 2026-04-17 04:46 | 42.77294 | -79.82189 | 8006 ft | 111 kts | 255° |
| 2026-04-17 04:46 | 42.77143 | -79.83231 | 8006 ft | 111 kts | 255° |
| 2026-04-17 04:46 | 42.76996 | -79.84259 | 8006 ft | 111 kts | 255° |
| 2026-04-17 04:46 | 42.76848 | -79.85295 | 8006 ft | 111 kts | 255° |
| 2026-04-17 04:47 | 42.76701 | -79.86322 | 8005 ft | 111 kts | 255° |
| 2026-04-17 04:47 | 42.76553 | -79.87360 | 8005 ft | 111 kts | 255° |
| 2026-04-17 04:47 | 42.76405 | -79.88402 | 8005 ft | 111 kts | 255° |
| 2026-04-17 04:47 | 42.76259 | -79.89429 | 8004 ft | 111 kts | 255° |
| 2026-04-17 04:48 | 42.76112 | -79.90465 | 8004 ft | 111 kts | 255° |
| 2026-04-17 04:48 | 42.75961 | -79.91492 | 8003 ft | 111 kts | 259° |
| 2026-04-17 04:48 | 42.75814 | -79.92520 | 8003 ft | 110 kts | 260° |
| 2026-04-17 04:48 | 42.75669 | -79.93555 | 8003 ft | 110 kts | 260° |
| 2026-04-17 04:49 | 42.75524 | -79.94582 | 8003 ft | 110 kts | 260° |
| 2026-04-17 04:49 | 42.75379 | -79.95609 | 8003 ft | 110 kts | 260° |
| 2026-04-17 04:49 | 42.75234 | -79.96637 | 8003 ft | 110 kts | 260° |
| 2026-04-17 04:49 | 42.75089 | -79.97659 | 8003 ft | 110 kts | 260° |
| 2026-04-17 04:50 | 42.74943 | -79.98685 | 8002 ft | 110 kts | 260° |
| 2026-04-17 04:50 | 42.74798 | -79.99710 | 8002 ft | 110 kts | 260° |
| 2026-04-17 04:50 | 42.74652 | -80.00737 | 8002 ft | 110 kts | 260° |
| 2026-04-17 04:50 | 42.74506 | -80.01760 | 8002 ft | 110 kts | 260° |
| 2026-04-17 04:51 | 42.74360 | -80.02784 | 8002 ft | 110 kts | 260° |
| 2026-04-17 04:51 | 42.74212 | -80.03818 | 8002 ft | 110 kts | 260° |
| 2026-04-17 04:51 | 42.74065 | -80.04845 | 8002 ft | 110 kts | 260° |
| 2026-04-17 04:51 | 42.73918 | -80.05873 | 8002 ft | 110 kts | 260° |
| 2026-04-17 04:52 | 42.73772 | -80.06897 | 8002 ft | 110 kts | 260° |
| 2026-04-17 04:52 | 42.73626 | -80.07919 | 8002 ft | 110 kts | 260° |
| 2026-04-17 04:52 | 42.73478 | -80.08950 | 8002 ft | 110 kts | 260° |
| 2026-04-17 04:52 | 42.73331 | -80.09976 | 8002 ft | 110 kts | 260° |
| 2026-04-17 04:53 | 42.73183 | -80.11004 | 8002 ft | 110 kts | 260° |
| 2026-04-17 04:53 | 42.73037 | -80.12022 | 8002 ft | 110 kts | 260° |
| 2026-04-17 04:53 | 42.72890 | -80.13044 | 8002 ft | 110 kts | 260° |
| 2026-04-17 04:55 | 42.71856 | -80.20225 | 8002 ft | 110 kts | 260° |
| 2026-04-17 04:55 | 42.71709 | -80.21248 | 8002 ft | 110 kts | 260° |
| 2026-04-17 04:55 | 42.71562 | -80.22263 | 8002 ft | 110 kts | 260° |
| 2026-04-17 04:56 | 42.71413 | -80.23293 | 8003 ft | 110 kts | 260° |
| 2026-04-17 04:56 | 42.71266 | -80.24308 | 8003 ft | 110 kts | 260° |
| 2026-04-17 04:56 | 42.71117 | -80.25338 | 8003 ft | 110 kts | 260° |
| 2026-04-17 04:56 | 42.70969 | -80.26360 | 8003 ft | 110 kts | 260° |
| 2026-04-17 04:57 | 42.70821 | -80.27380 | 8003 ft | 110 kts | 260° |
| 2026-04-17 04:57 | 42.70673 | -80.28397 | 8004 ft | 110 kts | 260° |
| 2026-04-17 04:57 | 42.70524 | -80.29424 | 8004 ft | 110 kts | 260° |
| 2026-04-17 04:57 | 42.70376 | -80.30445 | 8004 ft | 110 kts | 260° |
| 2026-04-17 04:58 | 42.70227 | -80.31468 | 8004 ft | 110 kts | 260° |
| 2026-04-17 04:58 | 42.70080 | -80.32481 | 8004 ft | 110 kts | 260° |
| 2026-04-17 04:58 | 42.69932 | -80.33499 | 8005 ft | 110 kts | 260° |
| 2026-04-17 04:58 | 42.69783 | -80.34520 | 8005 ft | 110 kts | 260° |
| 2026-04-17 04:59 | 42.69635 | -80.35538 | 8005 ft | 110 kts | 260° |
| 2026-04-17 04:59 | 42.69486 | -80.36556 | 8005 ft | 110 kts | 260° |
| 2026-04-17 04:59 | 42.69337 | -80.37575 | 8006 ft | 110 kts | 260° |
| 2026-04-17 04:59 | 42.69189 | -80.38593 | 8006 ft | 110 kts | 259° |
| 2026-04-17 05:00 | 42.69040 | -80.39613 | 8006 ft | 110 kts | 259° |
| 2026-04-17 05:00 | 42.68892 | -80.40622 | 8007 ft | 109 kts | 259° |
| 2026-04-17 05:00 | 42.68742 | -80.41646 | 8008 ft | 109 kts | 259° |
| 2026-04-17 05:00 | 42.68593 | -80.42665 | 8009 ft | 109 kts | 259° |
| 2026-04-17 05:01 | 42.68446 | -80.43671 | 8011 ft | 109 kts | 259° |
| 2026-04-17 05:01 | 42.68297 | -80.44689 | 8012 ft | 109 kts | 259° |
| 2026-04-17 05:01 | 42.68148 | -80.45705 | 8013 ft | 109 kts | 259° |
| 2026-04-17 05:01 | 42.68000 | -80.46713 | 8015 ft | 109 kts | 259° |
| 2026-04-17 05:02 | 42.67852 | -80.47719 | 8016 ft | 109 kts | 259° |
| 2026-04-17 05:02 | 42.67703 | -80.48730 | 8017 ft | 109 kts | 259° |
| 2026-04-17 05:02 | 42.67555 | -80.49740 | 8018 ft | 109 kts | 258° |
| 2026-04-17 05:02 | 42.67406 | -80.50748 | 8020 ft | 109 kts | 258° |
| 2026-04-17 05:03 | 42.67258 | -80.51756 | 8021 ft | 108 kts | 258° |
| 2026-04-17 05:03 | 42.67108 | -80.52768 | 8022 ft | 108 kts | 258° |
| 2026-04-17 05:03 | 42.66960 | -80.53771 | 8023 ft | 108 kts | 258° |
| 2026-04-17 05:03 | 42.66814 | -80.54767 | 8024 ft | 108 kts | 258° |
| 2026-04-17 05:04 | 42.66665 | -80.55776 | 8025 ft | 108 kts | 258° |
| 2026-04-17 05:04 | 42.66517 | -80.56780 | 8026 ft | 108 kts | 258° |
| 2026-04-17 05:04 | 42.66367 | -80.57790 | 8027 ft | 108 kts | 258° |
| 2026-04-17 05:04 | 42.66219 | -80.58789 | 8028 ft | 108 kts | 258° |
| 2026-04-17 05:05 | 42.66071 | -80.59786 | 8029 ft | 108 kts | 258° |
| 2026-04-17 05:05 | 42.65921 | -80.60801 | 8030 ft | 108 kts | 258° |
| 2026-04-17 05:05 | 42.65773 | -80.61801 | 8031 ft | 108 kts | 257° |
| 2026-04-17 05:05 | 42.65626 | -80.62793 | 8032 ft | 108 kts | 257° |
| 2026-04-17 05:06 | 42.65475 | -80.63807 | 8033 ft | 108 kts | 257° |
| 2026-04-17 05:06 | 42.65328 | -80.64799 | 8033 ft | 108 kts | 257° |
| 2026-04-17 05:06 | 42.65177 | -80.65810 | 8036 ft | 108 kts | 257° |
| 2026-04-17 05:06 | 42.65029 | -80.66806 | 8037 ft | 108 kts | 257° |
| 2026-04-17 05:07 | 42.64880 | -80.67810 | 8037 ft | 108 kts | 257° |
| 2026-04-17 05:07 | 42.64729 | -80.68819 | 8037 ft | 108 kts | 257° |
| 2026-04-17 05:07 | 42.64580 | -80.69820 | 8037 ft | 108 kts | 257° |
| 2026-04-17 05:07 | 42.64430 | -80.70826 | 8037 ft | 108 kts | 257° |
| 2026-04-17 05:08 | 42.64280 | -80.71832 | 8037 ft | 109 kts | 257° |
| 2026-04-17 05:08 | 42.64129 | -80.72848 | 8037 ft | 109 kts | 257° |
| 2026-04-17 05:08 | 42.63980 | -80.73845 | 8037 ft | 109 kts | 257° |
| 2026-04-17 05:08 | 42.63829 | -80.74850 | 8038 ft | 109 kts | 257° |
| 2026-04-17 05:09 | 42.63678 | -80.75866 | 8038 ft | 109 kts | 257° |
| 2026-04-17 05:09 | 42.63528 | -80.76865 | 8038 ft | 109 kts | 257° |
| 2026-04-17 05:09 | 42.63377 | -80.77876 | 8038 ft | 108 kts | 257° |
| 2026-04-17 05:09 | 42.63226 | -80.78883 | 8038 ft | 108 kts | 257° |
| 2026-04-17 05:10 | 42.63076 | -80.79882 | 8038 ft | 108 kts | 257° |
| 2026-04-17 05:10 | 42.62924 | -80.80894 | 8038 ft | 108 kts | 257° |
| 2026-04-17 05:10 | 42.62774 | -80.81898 | 8038 ft | 108 kts | 257° |
| 2026-04-17 05:10 | 42.62622 | -80.82908 | 8039 ft | 108 kts | 257° |
| 2026-04-17 05:11 | 42.62471 | -80.83911 | 8039 ft | 108 kts | 257° |
| 2026-04-17 05:11 | 42.62320 | -80.84917 | 8039 ft | 108 kts | 257° |
| 2026-04-17 05:11 | 42.62169 | -80.85916 | 8039 ft | 108 kts | 257° |
| 2026-04-17 05:11 | 42.62017 | -80.86929 | 8039 ft | 108 kts | 257° |
| 2026-04-17 05:12 | 42.61866 | -80.87933 | 8039 ft | 108 kts | 257° |
| 2026-04-17 05:12 | 42.61715 | -80.88930 | 8040 ft | 108 kts | 257° |
| 2026-04-17 05:12 | 42.61563 | -80.89935 | 8040 ft | 108 kts | 257° |
| 2026-04-17 05:12 | 42.61411 | -80.90942 | 8040 ft | 108 kts | 257° |
| 2026-04-17 05:13 | 42.61259 | -80.91949 | 8040 ft | 108 kts | 257° |
| 2026-04-17 05:13 | 42.61110 | -80.92937 | 8039 ft | 108 kts | 257° |
| 2026-04-17 05:13 | 42.60958 | -80.93944 | 8039 ft | 107 kts | 257° |
| 2026-04-17 05:13 | 42.60808 | -80.94935 | 8039 ft | 107 kts | 257° |
| 2026-04-17 05:14 | 42.60658 | -80.95924 | 8039 ft | 107 kts | 257° |
| 2026-04-17 05:14 | 42.60508 | -80.96912 | 8039 ft | 107 kts | 257° |
| 2026-04-17 05:14 | 42.60357 | -80.97908 | 8039 ft | 107 kts | 257° |
| 2026-04-17 05:14 | 42.60209 | -80.98887 | 8039 ft | 106 kts | 257° |
| 2026-04-17 05:15 | 42.60060 | -80.99869 | 8039 ft | 106 kts | 257° |
| 2026-04-17 05:15 | 42.59910 | -81.00856 | 8039 ft | 106 kts | 257° |
| 2026-04-17 05:15 | 42.59762 | -81.01830 | 8039 ft | 106 kts | 257° |
| 2026-04-17 05:15 | 42.59613 | -81.02808 | 8039 ft | 105 kts | 257° |
| 2026-04-17 05:16 | 42.59464 | -81.03789 | 8039 ft | 105 kts | 257° |
| 2026-04-17 05:16 | 42.59317 | -81.04754 | 8039 ft | 105 kts | 257° |
| 2026-04-17 05:16 | 42.59168 | -81.05735 | 8039 ft | 105 kts | 257° |
| 2026-04-17 05:16 | 42.59020 | -81.06700 | 8039 ft | 104 kts | 257° |
| 2026-04-17 05:17 | 42.58873 | -81.07665 | 8039 ft | 104 kts | 257° |
| 2026-04-17 05:17 | 42.58727 | -81.08625 | 8039 ft | 104 kts | 257° |
| 2026-04-17 05:17 | 42.58580 | -81.09583 | 8039 ft | 104 kts | 257° |
| 2026-04-17 05:17 | 42.58432 | -81.10551 | 8039 ft | 104 kts | 257° |
| 2026-04-17 05:18 | 42.58286 | -81.11505 | 8039 ft | 103 kts | 257° |
| 2026-04-17 05:18 | 42.58139 | -81.12468 | 8039 ft | 103 kts | 257° |
| 2026-04-17 05:18 | 42.57994 | -81.13416 | 8039 ft | 103 kts | 257° |
| 2026-04-17 05:18 | 42.57849 | -81.14362 | 8038 ft | 103 kts | 257° |
| 2026-04-17 05:19 | 42.57703 | -81.15314 | 8038 ft | 103 kts | 257° |
| 2026-04-17 05:19 | 42.57557 | -81.16265 | 8038 ft | 103 kts | 257° |
| 2026-04-17 05:19 | 42.57410 | -81.17223 | 8038 ft | 103 kts | 257° |
| 2026-04-17 05:19 | 42.57263 | -81.18180 | 8038 ft | 103 kts | 257° |
| 2026-04-17 05:20 | 42.57117 | -81.19128 | 8038 ft | 103 kts | 257° |
| 2026-04-17 05:20 | 42.56971 | -81.20077 | 8038 ft | 103 kts | 257° |
| 2026-04-17 05:20 | 42.56824 | -81.21033 | 8038 ft | 103 kts | 257° |
| 2026-04-17 05:20 | 42.56679 | -81.21976 | 8038 ft | 103 kts | 257° |
| 2026-04-17 05:21 | 42.56533 | -81.22929 | 8038 ft | 103 kts | 257° |
| 2026-04-17 05:21 | 42.56386 | -81.23881 | 8038 ft | 103 kts | 257° |
| 2026-04-17 05:21 | 42.56240 | -81.24824 | 8038 ft | 103 kts | 257° |
| 2026-04-17 05:21 | 42.56092 | -81.25785 | 8038 ft | 103 kts | 257° |
| 2026-04-17 05:22 | 42.55946 | -81.26731 | 8038 ft | 103 kts | 257° |
| 2026-04-17 05:22 | 42.55798 | -81.27681 | 8038 ft | 103 kts | 257° |
| 2026-04-17 05:22 | 42.55652 | -81.28627 | 8038 ft | 103 kts | 257° |
| 2026-04-17 05:22 | 42.55504 | -81.29587 | 8038 ft | 103 kts | 257° |
| 2026-04-17 05:23 | 42.55358 | -81.30523 | 8038 ft | 103 kts | 257° |
| 2026-04-17 05:23 | 42.55211 | -81.31478 | 8038 ft | 103 kts | 257° |
| 2026-04-17 05:23 | 42.55063 | -81.32434 | 8038 ft | 103 kts | 257° |
| 2026-04-17 05:23 | 42.54916 | -81.33382 | 8038 ft | 103 kts | 257° |
| 2026-04-17 05:24 | 42.54769 | -81.34330 | 8038 ft | 103 kts | 257° |
| 2026-04-17 05:24 | 42.54623 | -81.35274 | 8037 ft | 103 kts | 257° |
| 2026-04-17 05:24 | 42.54475 | -81.36221 | 8037 ft | 103 kts | 257° |
| 2026-04-17 05:24 | 42.54327 | -81.37177 | 8037 ft | 103 kts | 257° |
| 2026-04-17 05:25 | 42.54180 | -81.38123 | 8037 ft | 102 kts | 257° |
| 2026-04-17 05:25 | 42.54033 | -81.39068 | 8037 ft | 102 kts | 257° |
| 2026-04-17 05:25 | 42.53884 | -81.40021 | 8037 ft | 102 kts | 257° |
| 2026-04-17 05:25 | 42.53738 | -81.40961 | 8037 ft | 102 kts | 257° |
| 2026-04-17 05:26 | 42.53590 | -81.41907 | 8037 ft | 102 kts | 258° |
| 2026-04-17 05:26 | 42.53443 | -81.42857 | 8037 ft | 102 kts | 258° |
| 2026-04-17 05:26 | 42.53296 | -81.43806 | 8037 ft | 102 kts | 258° |
| 2026-04-17 05:26 | 42.53149 | -81.44744 | 8037 ft | 102 kts | 258° |
| 2026-04-17 05:27 | 42.53001 | -81.45690 | 8037 ft | 102 kts | 258° |
| 2026-04-17 05:27 | 42.52854 | -81.46632 | 8037 ft | 102 kts | 258° |
| 2026-04-17 05:27 | 42.52708 | -81.47570 | 8037 ft | 102 kts | 259° |
| 2026-04-17 05:27 | 42.52559 | -81.48521 | 8037 ft | 102 kts | 259° |
| 2026-04-17 05:28 | 42.52412 | -81.49461 | 8037 ft | 102 kts | 259° |
| 2026-04-17 05:28 | 42.52264 | -81.50401 | 8037 ft | 102 kts | 259° |
| 2026-04-17 05:28 | 42.52116 | -81.51349 | 8037 ft | 102 kts | 259° |
| 2026-04-17 05:28 | 42.51969 | -81.52286 | 8036 ft | 102 kts | 259° |
| 2026-04-17 05:29 | 42.51821 | -81.53234 | 8036 ft | 102 kts | 259° |
| 2026-04-17 05:29 | 42.51674 | -81.54166 | 8036 ft | 102 kts | 260° |
| 2026-04-17 05:29 | 42.51525 | -81.55117 | 8036 ft | 102 kts | 260° |
| 2026-04-17 05:29 | 42.51378 | -81.56055 | 8036 ft | 102 kts | 260° |
| 2026-04-17 05:30 | 42.51230 | -81.56993 | 8036 ft | 102 kts | 260° |
| 2026-04-17 05:30 | 42.51081 | -81.57944 | 8036 ft | 102 kts | 260° |
| 2026-04-17 05:30 | 42.50933 | -81.58883 | 8036 ft | 102 kts | 261° |
| 2026-04-17 05:30 | 42.50784 | -81.59826 | 8036 ft | 102 kts | 261° |
| 2026-04-17 05:31 | 42.50636 | -81.60767 | 8036 ft | 102 kts | 261° |
| 2026-04-17 05:31 | 42.50487 | -81.61713 | 8036 ft | 102 kts | 261° |
| 2026-04-17 05:31 | 42.50339 | -81.62655 | 8036 ft | 102 kts | 261° |
| 2026-04-17 05:31 | 42.50192 | -81.63585 | 8036 ft | 102 kts | 261° |
| 2026-04-17 05:32 | 42.50042 | -81.64538 | 8036 ft | 102 kts | 261° |
| 2026-04-17 05:32 | 42.49893 | -81.65481 | 8039 ft | 102 kts | 260° |
| 2026-04-17 05:32 | 42.49744 | -81.66424 | 8041 ft | 102 kts | 260° |
| 2026-04-17 05:32 | 42.49594 | -81.67371 | 8041 ft | 103 kts | 260° |
| 2026-04-17 05:33 | 42.49444 | -81.68321 | 8041 ft | 103 kts | 260° |
| 2026-04-17 05:33 | 42.49294 | -81.69270 | 8041 ft | 103 kts | 260° |
| 2026-04-17 05:33 | 42.49144 | -81.70218 | 8041 ft | 103 kts | 260° |
| 2026-04-17 05:33 | 42.48993 | -81.71168 | 8040 ft | 103 kts | 260° |
| 2026-04-17 05:34 | 42.48842 | -81.72117 | 8040 ft | 103 kts | 260° |
| 2026-04-17 05:34 | 42.48692 | -81.73067 | 8040 ft | 103 kts | 260° |
| 2026-04-17 05:34 | 42.48539 | -81.74030 | 8040 ft | 103 kts | 260° |
| 2026-04-17 05:34 | 42.48388 | -81.74976 | 8040 ft | 103 kts | 260° |
| 2026-04-17 05:35 | 42.48236 | -81.75935 | 8040 ft | 103 kts | 260° |
| 2026-04-17 05:35 | 42.48084 | -81.76886 | 8040 ft | 103 kts | 260° |
| 2026-04-17 05:35 | 42.47934 | -81.77834 | 8040 ft | 103 kts | 260° |
| 2026-04-17 05:35 | 42.47781 | -81.78790 | 8040 ft | 103 kts | 260° |
| 2026-04-17 05:36 | 42.47630 | -81.79736 | 8040 ft | 103 kts | 260° |
| 2026-04-17 05:36 | 42.47478 | -81.80689 | 8040 ft | 103 kts | 260° |
| 2026-04-17 05:36 | 42.47327 | -81.81635 | 8040 ft | 103 kts | 260° |
| 2026-04-17 05:36 | 42.47177 | -81.82580 | 8040 ft | 103 kts | 260° |
| 2026-04-17 05:37 | 42.47024 | -81.83538 | 8040 ft | 103 kts | 260° |
| 2026-04-17 05:37 | 42.46872 | -81.84487 | 8040 ft | 103 kts | 260° |
| 2026-04-17 05:37 | 42.46720 | -81.85435 | 8040 ft | 103 kts | 260° |
| 2026-04-17 05:37 | 42.46568 | -81.86389 | 8040 ft | 103 kts | 260° |
| 2026-04-17 05:38 | 42.46417 | -81.87329 | 8040 ft | 103 kts | 260° |
| 2026-04-17 05:38 | 42.46265 | -81.88278 | 8040 ft | 103 kts | 260° |
| 2026-04-17 05:38 | 42.46112 | -81.89233 | 8040 ft | 103 kts | 260° |
| 2026-04-17 05:38 | 42.45960 | -81.90186 | 8040 ft | 103 kts | 260° |
| 2026-04-17 05:39 | 42.45808 | -81.91132 | 8039 ft | 103 kts | 260° |
| 2026-04-17 05:39 | 42.45656 | -81.92075 | 8039 ft | 103 kts | 260° |
| 2026-04-17 05:39 | 42.45504 | -81.93023 | 8039 ft | 103 kts | 260° |
| 2026-04-17 05:39 | 42.45350 | -81.93978 | 8039 ft | 103 kts | 260° |
| 2026-04-17 05:40 | 42.45197 | -81.94930 | 8039 ft | 103 kts | 260° |
| 2026-04-17 05:40 | 42.45045 | -81.95874 | 8039 ft | 103 kts | 260° |
| 2026-04-17 05:40 | 42.44893 | -81.96824 | 8039 ft | 103 kts | 260° |
| 2026-04-17 05:40 | 42.44740 | -81.97770 | 8039 ft | 103 kts | 260° |
| 2026-04-17 05:41 | 42.44588 | -81.98717 | 8039 ft | 103 kts | 260° |
| 2026-04-17 05:41 | 42.44434 | -81.99667 | 8039 ft | 103 kts | 260° |
| 2026-04-17 05:41 | 42.44282 | -82.00612 | 8039 ft | 103 kts | 260° |
| 2026-04-17 05:41 | 42.44129 | -82.01559 | 8039 ft | 103 kts | 260° |
| 2026-04-17 05:42 | 42.43976 | -82.02508 | 8039 ft | 103 kts | 260° |
| 2026-04-17 05:42 | 42.43821 | -82.03465 | 8039 ft | 103 kts | 260° |
| 2026-04-17 05:42 | 42.43669 | -82.04404 | 8039 ft | 103 kts | 260° |
| 2026-04-17 05:42 | 42.43516 | -82.05347 | 8039 ft | 103 kts | 260° |
| 2026-04-17 05:43 | 42.43362 | -82.06298 | 8039 ft | 103 kts | 260° |
| 2026-04-17 05:43 | 42.43208 | -82.07249 | 8039 ft | 103 kts | 260° |
| 2026-04-17 05:43 | 42.43056 | -82.08190 | 8039 ft | 103 kts | 260° |
| 2026-04-17 05:43 | 42.42901 | -82.09146 | 8039 ft | 103 kts | 260° |
| 2026-04-17 05:44 | 42.42748 | -82.10088 | 8039 ft | 103 kts | 260° |
| 2026-04-17 05:44 | 42.42595 | -82.11030 | 8038 ft | 103 kts | 260° |
| 2026-04-17 05:44 | 42.42440 | -82.11984 | 8038 ft | 103 kts | 260° |
| 2026-04-17 05:44 | 42.42287 | -82.12922 | 8038 ft | 103 kts | 260° |
| 2026-04-17 05:45 | 42.42133 | -82.13871 | 8038 ft | 103 kts | 260° |
| 2026-04-17 05:45 | 42.41979 | -82.14821 | 8038 ft | 103 kts | 260° |
| 2026-04-17 05:45 | 42.41824 | -82.15771 | 8038 ft | 103 kts | 260° |
| 2026-04-17 05:45 | 42.41671 | -82.16708 | 8038 ft | 103 kts | 260° |
| 2026-04-17 05:46 | 42.41516 | -82.17662 | 8038 ft | 103 kts | 260° |
| 2026-04-17 05:46 | 42.41363 | -82.18598 | 8038 ft | 103 kts | 260° |
| 2026-04-17 05:46 | 42.41208 | -82.19553 | 8038 ft | 103 kts | 260° |
| 2026-04-17 05:46 | 42.41054 | -82.20489 | 8038 ft | 103 kts | 260° |
| 2026-04-17 05:47 | 42.40900 | -82.21436 | 8038 ft | 103 kts | 260° |
| 2026-04-17 05:47 | 42.40746 | -82.22378 | 8038 ft | 103 kts | 260° |
| 2026-04-17 05:47 | 42.40591 | -82.23324 | 8038 ft | 103 kts | 260° |
| 2026-04-17 05:47 | 42.40436 | -82.24273 | 8038 ft | 103 kts | 260° |
| 2026-04-17 05:48 | 42.40281 | -82.25219 | 8038 ft | 103 kts | 260° |
| 2026-04-17 05:48 | 42.40128 | -82.26159 | 8050 ft | 101 kts | 259° |
| 2026-04-17 05:48 | 42.39977 | -82.27091 | 8063 ft | 101 kts | 258° |
| 2026-04-17 05:48 | 42.39824 | -82.28020 | 8065 ft | 101 kts | 258° |
| 2026-04-17 05:49 | 42.39671 | -82.28948 | 8065 ft | 101 kts | 258° |
| 2026-04-17 05:49 | 42.39518 | -82.29878 | 8065 ft | 101 kts | 258° |
| 2026-04-17 05:49 | 42.39366 | -82.30801 | 8065 ft | 101 kts | 258° |
| 2026-04-17 05:49 | 42.39212 | -82.31739 | 8065 ft | 101 kts | 258° |
| 2026-04-17 05:50 | 42.39059 | -82.32667 | 8065 ft | 101 kts | 258° |
| 2026-04-17 05:50 | 42.38905 | -82.33603 | 8064 ft | 101 kts | 258° |
| 2026-04-17 05:50 | 42.38752 | -82.34526 | 8064 ft | 101 kts | 258° |
| 2026-04-17 05:50 | 42.38598 | -82.35465 | 8064 ft | 101 kts | 259° |
| 2026-04-17 05:51 | 42.38444 | -82.36395 | 8064 ft | 102 kts | 259° |
| 2026-04-17 05:51 | 42.38289 | -82.37336 | 8063 ft | 102 kts | 259° |
| 2026-04-17 05:51 | 42.38136 | -82.38265 | 8063 ft | 102 kts | 259° |
| 2026-04-17 05:51 | 42.37980 | -82.39211 | 8063 ft | 102 kts | 259° |
| 2026-04-17 05:52 | 42.37826 | -82.40142 | 8063 ft | 102 kts | 259° |
| 2026-04-17 05:52 | 42.37672 | -82.41074 | 8063 ft | 102 kts | 259° |
| 2026-04-17 05:52 | 42.37516 | -82.42020 | 8063 ft | 102 kts | 259° |
| 2026-04-17 05:52 | 42.37361 | -82.42955 | 8063 ft | 102 kts | 259° |
| 2026-04-17 05:53 | 42.37204 | -82.43902 | 8063 ft | 102 kts | 259° |
| 2026-04-17 05:53 | 42.37049 | -82.44840 | 8063 ft | 102 kts | 259° |
| 2026-04-17 05:53 | 42.36893 | -82.45780 | 8063 ft | 102 kts | 259° |
| 2026-04-17 05:53 | 42.36737 | -82.46723 | 8063 ft | 102 kts | 259° |
| 2026-04-17 05:54 | 42.36580 | -82.47666 | 8063 ft | 102 kts | 259° |
| 2026-04-17 05:54 | 42.36425 | -82.48601 | 8063 ft | 103 kts | 259° |
| 2026-04-17 05:54 | 42.36268 | -82.49545 | 8063 ft | 103 kts | 259° |
| 2026-04-17 05:54 | 42.36111 | -82.50491 | 8064 ft | 103 kts | 259° |
| 2026-04-17 05:55 | 42.35955 | -82.51434 | 8064 ft | 103 kts | 259° |
| 2026-04-17 05:55 | 42.35798 | -82.52380 | 8064 ft | 103 kts | 259° |
| 2026-04-17 05:55 | 42.35640 | -82.53329 | 8064 ft | 103 kts | 259° |
| 2026-04-17 05:55 | 42.35482 | -82.54273 | 8065 ft | 103 kts | 260° |
| 2026-04-17 05:56 | 42.35325 | -82.55220 | 8065 ft | 103 kts | 260° |
| 2026-04-17 05:56 | 42.35167 | -82.56165 | 8065 ft | 103 kts | 260° |
| 2026-04-17 05:56 | 42.35009 | -82.57112 | 8066 ft | 103 kts | 260° |
| 2026-04-17 05:56 | 42.34851 | -82.58058 | 8068 ft | 103 kts | 260° |
| 2026-04-17 05:57 | 42.34691 | -82.59015 | 8069 ft | 103 kts | 260° |
| 2026-04-17 05:57 | 42.34535 | -82.59955 | 8070 ft | 103 kts | 260° |
| 2026-04-17 05:57 | 42.34375 | -82.60905 | 8071 ft | 103 kts | 261° |
| 2026-04-17 05:57 | 42.34218 | -82.61845 | 8073 ft | 103 kts | 261° |
| 2026-04-17 05:58 | 42.34060 | -82.62791 | 8074 ft | 103 kts | 261° |
| 2026-04-17 05:58 | 42.33902 | -82.63736 | 8075 ft | 103 kts | 261° |
| 2026-04-17 05:58 | 42.33744 | -82.64677 | 8076 ft | 103 kts | 261° |
| 2026-04-17 05:59 | 42.33426 | -82.66573 | 8083 ft | 103 kts | 261° |
| 2026-04-17 05:59 | 42.33268 | -82.67516 | 8084 ft | 103 kts | 261° |
| 2026-04-17 05:59 | 42.33109 | -82.68469 | 8085 ft | 103 kts | 261° |
| 2026-04-17 05:59 | 42.32949 | -82.69418 | 8086 ft | 103 kts | 261° |
| 2026-04-17 06:00 | 42.32786 | -82.70367 | 8087 ft | 104 kts | 260° |
| 2026-04-17 06:00 | 42.32606 | -82.71316 | 8088 ft | 104 kts | 259° |
| 2026-04-17 06:00 | 42.32417 | -82.72256 | 8089 ft | 104 kts | 258° |
| 2026-04-17 06:00 | 42.32220 | -82.73199 | 8090 ft | 104 kts | 258° |
| 2026-04-17 06:01 | 42.32025 | -82.74143 | 8090 ft | 104 kts | 259° |
| 2026-04-17 06:01 | 42.31839 | -82.75087 | 8091 ft | 104 kts | 260° |
| 2026-04-17 06:01 | 42.31670 | -82.76068 | 8079 ft | 113 kts | 244° |
| 2026-04-17 06:01 | 42.31476 | -82.77130 | 8092 ft | 119 kts | 243° |
| 2026-04-17 06:02 | 42.31278 | -82.78234 | 8093 ft | 124 kts | 244° |
| 2026-04-17 06:02 | 42.31070 | -82.79423 | 8027 ft | 132 kts | 245° |
| 2026-04-17 06:02 | 42.30864 | -82.80642 | 7928 ft | 134 kts | 246° |
| 2026-04-17 06:02 | 42.30648 | -82.81886 | 7819 ft | 133 kts | 260° |
| 2026-04-17 06:03 | 42.30447 | -82.83005 | 7687 ft | 111 kts | 263° |
| 2026-04-17 06:03 | 42.30290 | -82.83958 | 7555 ft | 98 kts | 264° |
| 2026-04-17 06:03 | 42.30148 | -82.84827 | 7389 ft | 93 kts | 265° |
| 2026-04-17 06:03 | 42.30009 | -82.85675 | 7186 ft | 94 kts | 265° |
| 2026-04-17 06:04 | 42.29867 | -82.86545 | 6936 ft | 92 kts | 266° |
| 2026-04-17 06:04 | 42.29728 | -82.87351 | 6681 ft | 85 kts | 267° |
| 2026-04-17 06:04 | 42.29600 | -82.88104 | 6432 ft | 82 kts | 268° |
| 2026-04-17 06:04 | 42.29474 | -82.88852 | 6179 ft | 81 kts | 268° |
| 2026-04-17 06:05 | 42.29350 | -82.89595 | 5929 ft | 81 kts | 269° |
| 2026-04-17 06:05 | 42.29223 | -82.90377 | 5593 ft | 89 kts | 268° |
| 2026-04-17 06:05 | 42.29085 | -82.91200 | 5273 ft | 93 kts | 267° |
| 2026-04-17 06:05 | 42.28936 | -82.92091 | 4953 ft | 110 kts | 266° |
| 2026-04-17 06:06 | 42.28758 | -82.93182 | 4639 ft | 122 kts | 264° |
| 2026-04-17 06:06 | 42.28565 | -82.94276 | 4319 ft | 121 kts | 264° |
| 2026-04-17 06:06 | 42.28372 | -82.95380 | 3995 ft | 122 kts | 264° |
| 2026-04-17 06:06 | 42.28180 | -82.96493 | 3671 ft | 122 kts | 264° |
| 2026-04-17 06:07 | 42.27987 | -82.97623 | 3344 ft | 123 kts | 263° |
| 2026-04-17 06:07 | 42.27793 | -82.98748 | 3020 ft | 124 kts | 263° |
| 2026-04-17 06:07 | 42.27607 | -82.99882 | 2696 ft | 124 kts | 266° |
| 2026-04-17 06:07 | 42.27506 | -83.01042 | 2370 ft | 124 kts | 267° |
| 2026-04-17 06:08 | 42.27370 | -83.02137 | 2301 ft | 105 kts | 264° |
| 2026-04-17 06:08 | 42.27235 | -83.03007 | 2322 ft | 86 kts | 264° |
| 2026-04-17 06:08 | 42.27117 | -83.03738 | 2324 ft | 73 kts | 265° |
| 2026-04-17 06:08 | 42.27004 | -83.04456 | 2350 ft | 92 kts | 264° |
| 2026-04-17 06:09 | 42.26857 | -83.05440 | 2346 ft | 117 kts | 266° |
| 2026-04-17 06:09 | 42.26865 | -83.06583 | 2340 ft | 128 kts | 274° |
| 2026-04-17 06:09 | 42.26824 | -83.07818 | 2337 ft | 135 kts | 269° |
| 2026-04-17 06:09 | 42.26753 | -83.09109 | 2335 ft | 138 kts | 268° |
| 2026-04-17 06:10 | 42.26684 | -83.10362 | 2331 ft | 130 kts | 265° |
| 2026-04-17 06:10 | 42.26622 | -83.11558 | 2332 ft | 126 kts | 264° |
| 2026-04-17 06:10 | 42.26557 | -83.12730 | 2332 ft | 124 kts | 263° |
| 2026-04-17 06:10 | 42.26493 | -83.13882 | 2332 ft | 122 kts | 263° |
| 2026-04-17 06:11 | 42.26429 | -83.15025 | 2332 ft | 121 kts | 262° |
| 2026-04-17 06:11 | 42.26366 | -83.16147 | 2332 ft | 119 kts | 262° |
| 2026-04-17 06:11 | 42.26304 | -83.17263 | 2332 ft | 118 kts | 262° |
| 2026-04-17 06:11 | 42.26242 | -83.18372 | 2331 ft | 116 kts | 262° |
| 2026-04-17 06:12 | 42.26188 | -83.19398 | 2326 ft | 103 kts | 261° |
| 2026-04-17 06:12 | 42.26139 | -83.20317 | 2326 ft | 94 kts | 261° |
| 2026-04-17 06:12 | 42.26093 | -83.21165 | 2327 ft | 87 kts | 260° |
| 2026-04-17 06:12 | 42.26050 | -83.21959 | 2327 ft | 82 kts | 260° |
| 2026-04-17 06:13 | 42.26009 | -83.22713 | 2314 ft | 80 kts | 259° |
| 2026-04-17 06:13 | 42.25961 | -83.23509 | 2196 ft | 89 kts | 261° |
| 2026-04-17 06:13 | 42.25911 | -83.24365 | 2099 ft | 93 kts | 261° |
| 2026-04-17 06:13 | 42.25863 | -83.25221 | 2093 ft | 90 kts | 261° |
| 2026-04-17 06:14 | 42.25822 | -83.25932 | 2094 ft | 92 kts | 265° |
| 2026-04-17 06:14 | 42.25767 | -83.26803 | 2089 ft | 95 kts | 266° |
| 2026-04-17 06:14 | 42.25717 | -83.27713 | 2088 ft | 97 kts | 266° |
| 2026-04-17 06:14 | 42.25674 | -83.28556 | 2065 ft | 82 kts | 268° |
| 2026-04-17 06:15 | 42.25668 | -83.29330 | 1924 ft | 79 kts | 270° |
| 2026-04-17 06:15 | 42.25592 | -83.30079 | 1738 ft | 82 kts | 246° |
| 2026-04-17 06:15 | 42.25347 | -83.30640 | 1609 ft | 81 kts | 236° |
| 2026-04-17 06:15 | 42.25090 | -83.31053 | 1486 ft | 82 kts | 229° |
| 2026-04-17 06:16 | 42.24636 | -83.31526 | 1326 ft | 82 kts | 210° |
| 2026-04-17 06:16 | 42.24154 | -83.31915 | 1175 ft | 80 kts | 215° |
| 2026-04-17 06:16 | 42.23626 | -83.32212 | 1017 ft | 79 kts | 199° |
| 2026-04-17 06:16 | 42.23129 | -83.32552 | 889 ft | 81 kts | 213° |
| 2026-04-17 06:17 | 42.22652 | -83.32951 | 762 ft | 83 kts | 207° |
| 2026-04-17 06:17 | 42.22126 | -83.33307 | 738 ft | 74 kts | 208° |
| 2026-04-17 06:17 | 42.21719 | -83.33596 | 638 ft | 55 kts | 210° |
| 2026-04-17 06:17 | 42.21458 | -83.33794 | 630 ft | 34 kts | 209° |
| 2026-04-17 06:18 | 42.21276 | -83.33929 | 630 ft | 25 kts | 208° |
| 2026-04-17 06:18 | 42.21082 | -83.34062 | 630 ft | 34 kts | 207° |
| 2026-04-17 06:18 | 42.20911 | -83.34121 | 630 ft | 9 kts | 116° |
| 2026-04-17 06:18 | 42.20869 | -83.34011 | 630 ft | 17 kts | 112° |
| 2026-04-17 06:19 | 42.20962 | -83.33894 | 630 ft | 24 kts | 28° |
| 2026-04-17 06:19 | 42.21141 | -83.33763 | 628 ft | 33 kts | 29° |
| 2026-04-17 06:19 | 42.21305 | -83.33588 | 627 ft | 25 kts | 103° |
| 2026-04-17 06:19 | 42.21224 | -83.33388 | 627 ft | 23 kts | 115° |
| 2026-04-17 06:20 | 42.21220 | -83.33217 | 627 ft | 15 kts | 99° |
| 2026-04-17 06:20 | 42.21199 | -83.33171 | 627 ft | 0 kts | 150° |